• Join FlightAware (Why Join?)
  • Login
  • US Flag 
07:56PM EDT


 

Airport Tracker/Info


-or-


 

Live Flight TrackerFlight Track Log ✈ COM3098 ✈ 05-May-2012 ✈ KCVG - KDTW

Flight Track Log - Related Links

Times and Time Zones

All times are in EDT time to prevent confusion due to time zone crossing. See the COM3098 flight status page for this flight to view local times or setup timezone preferences in your user account.

Time Position Orientation Groundspeed Altitude Reporting Facility
EDT Latitude Longitude Course Direction KTS MPH feet Rate Location/Type
06:54AM 39.0500 -84.6833 311° West 160 184 1,600  Level Cincinnati TRACON
06:55AM 39.0833 -84.7333 North 221 254 3,800 2,220 Climbing Cincinnati TRACON
06:57AM 39.2219 -84.7094 16° North 253 291 8,800 2,280 Climbing Indianapolis Center
06:58AM 39.2972 -84.6811 13° North 263 303 10,800 1,800 Climbing Indianapolis Center
06:59AM 39.3892 -84.6531 14° North 303 349 12,400 1,920 Climbing Indianapolis Center
07:00AM 39.4833 -84.6222 14° North 332 382 14,700 2,400 Climbing Indianapolis Center
07:01AM 39.5817 -84.5914 20° North 350 403 17,300 2,340 Climbing Indianapolis Center
07:02AM 39.6717 -84.5497 19° North 350 403 19,400 1,740 Climbing Indianapolis Center
07:03AM 39.7617 -84.5103 18° North 339 390 20,800 780 Climbing Indianapolis Center
07:04AM 39.8556 -84.4711 20° North 350 403 21,000 60 Climbing Indianapolis Center
07:05AM 39.9394 -84.4317 15° North 355 409 21,000  Level Indianapolis Center
07:06AM 40.0292 -84.4003 360° North 345 397 21,000  Level Indianapolis Center
07:07AM 40.1272 -84.4014 360° North 337 388 21,000  Level Indianapolis Center
07:08AM 40.2250 -84.4025 358° North 332 382 21,000  Level Indianapolis Center
07:09AM 40.3208 -84.4064 359° North 342 394 21,000  Level Indianapolis Center
07:11AM 40.4925 -84.4111 359° North 363 418 21,000  Level Cleveland Center
07:12AM 40.5906 -84.4142 359° North 363 418 21,000  Level Cleveland Center
07:13AM 40.6864 -84.4169 359° North 358 412 21,000  Level Cleveland Center
07:14AM 40.7864 -84.4200 359° North 352 405 21,000  Level Cleveland Center
07:15AM 40.8717 -84.4222 360° North 347 399 21,000 -60 Level Cleveland Center
07:16AM 40.9697 -84.4225 North 347 399 20,900 -660 Descending Cleveland Center
07:17AM 41.0700 -84.4172 357° North 334 384 19,700 -1,140 Descending Cleveland Center
07:18AM 41.1700 -84.4233 359° North 338 389 18,700 -1,020 Descending Cleveland Center
07:19AM 41.2658 -84.4261 359° North 343 395 17,700 -900 Descending Cleveland Center
07:20AM 41.3553 -84.4286 359° North 348 400 16,900 -900 Descending Cleveland Center
07:21AM 41.4575 -84.4319 359° North 353 406 15,900 -1,020 Descending Cleveland Center
07:22AM 41.5594 -84.4353 North 359 413 14,900 -1,020 Descending Cleveland Center
07:23AM 41.6558 -84.4214 53° Northeast 359 413 13,900 -960 Descending Cleveland Center
07:24AM 41.7158 -84.3139 64° Northeast 329 379 13,000 -720 Descending Cleveland Center
07:25AM 41.7592 -84.1967 58° Northeast 339 390 12,500 -600 Descending Cleveland Center
07:25AM 41.7947 -84.1206 46° Northeast 353 406 12,100 -360 Descending Cleveland Center
07:27AM 41.8731 -84.0133 30° Northeast 337 388 11,900 -600 Descending Cleveland Center
07:28AM 41.9458 -83.9558 36° Northeast 302 348 10,800 -900 Descending Cleveland Center
07:29AM 42.0081 -83.8947 105° East 255 293 10,100 -1,080 Descending Cleveland Center
07:30AM 41.9917 -83.8100 112° Southeast 229 264 8,700 -1,380 Descending Cleveland Center
07:31AM 41.9708 -83.7392 131° Southeast 201 231 7,400 -900 Descending Cleveland Center
07:32AM 41.9367 -83.6872 107° East 194 223 7,000 -600 Descending Cleveland Center
07:33AM 41.9217 -83.6222 49° Northeast 191 220 6,300 -840 Descending Cleveland Center
07:34AM 41.9586 -83.5656 29° Northeast 188 216 5,300 -660 Descending Cleveland Center
07:35AM 41.9969 -83.5364 29° Northeast 185 213 5,000 -540 Descending Cleveland Center
07:36AM 42.0458 -83.4997 27° Northeast 188 216 4,300 -900 Descending Cleveland Center
07:37AM 42.0883 -83.4708 29° Northeast 189 217 3,300 -1,080 Descending Cleveland Center
07:38AM 42.1308 -83.4392 28° Northeast 162 186 2,300 -840 Descending Cleveland Center
07:40AM 42.2008 -83.3889 28° Northeast 134 154 800 -720 Descending Cleveland Center